Date,TemperatureHighF,TemperatureAvgF,TemperatureLowF,DewpointHighF,DewpointAvgF,DewpointLowF,HumidityHigh,HumidityAvg,HumidityLow,PressureMaxIn,PressureMinIn,WindSpeedMaxMPH,WindSpeedAvgMPH,GustSpeedMaxMPH,PrecipitationSumIn
2013-1-1,32,31,30,28,25,24,83,79,77,29.83,29.80,5,3,9,0.00
2013-1-22,30,11,8,24,0,-3,78,59,54,30.00,29.88,8,4,14,0.00
2013-10-26,43,42,41,42,41,40,99,98,95,29.73,29.66,4,1,0,0.27
2013-10-27,46,40,33,40,36,33,99,87,62,29.94,29.73,10,1,0,0.06
2013-10-28,45,40,31,40,31,22,96,71,43,30.29,29.92,8,2,0,0.00
2013-10-29,47,39,30,36,30,24,92,72,48,30.35,30.18,5,1,0,0.00
2013-10-30,55,45,37,45,40,36,98,84,56,30.18,29.98,4,1,0,0.00
2013-10-31,64,56,42,61,54,40,99,95,81,29.97,29.23,6,2,0,1.02
2013-11-1,62,54,47,59,50,44,99,86,71,29.57,29.05,12,3,0,0.12
2013-11-2,48,43,36,46,42,32,98,93,86,29.93,29.52,6,2,0,0.14
2013-11-3,36,32,25,32,25,18,87,75,57,30.42,29.94,7,2,0,0.00
2013-11-4,42,33,24,29,23,-100,96,69,46,30.63,30.42,6,-10,0,0.00
2013-11-5,56,46,34,41,36,26,90,69,56,30.48,30.35,4,1,0,0.00
2013-11-6,63,55,48,56,47,37,99,76,62,30.34,29.85,5,2,0,0.34
2013-11-7,54,42,37,54,36,30,99,81,67,30.07,29.85,7,3,0,0.14
2013-11-8,42,38,35,33,31,28,84,74,63,30.28,30.03,7,2,0,0.00
2013-11-9,52,43,30,47,36,27,95,75,55,30.26,29.84,7,2,0,0.05
2013-11-10,49,43,36,42,35,31,84,73,65,30.25,29.84,12,4,0,0.00
2013-11-11,45,36,30,41,34,27,99,91,76,30.24,29.98,8,2,0,0.28
2013-11-12,32,28,24,28,23,19,93,81,63,30.45,30.19,7,3,0,0.00
2013-11-13,38,31,24,32,26,20,95,82,71,30.47,30.13,9,3,0,0.00
2013-11-14,47,42,37,35,32,29,83,66,50,30.15,30.06,8,3,0,0.00
2013-11-15,51,46,40,37,34,32,88,65,53,30.14,30.08,6,2,0,0.00
2013-11-16,57,49,37,45,40,34,93,73,61,30.26,30.02,4,1,0,0.00
2013-11-17,62,56,52,57,52,45,97,87,75,30.01,29.38,6,2,0,0.27
2013-11-18,53,44,35,46,36,28,89,73,62,30.02,29.42,11,5,0,0.01
2013-11-19,38,33,25,28,24,22,92,70,55,30.49,30.02,11,3,0,0.00
2013-11-20,42,31,22,26,22,19,95,72,44,30.58,30.43,7,2,0,0.00
2013-11-21,44,39,28,40,31,19,97,75,59,30.44,30.27,4,0,0,0.14
2013-11-22,46,41,30,44,39,27,96,92,84,30.27,30.06,8,2,0,0.35
2013-11-23,33,26,18,27,20,8,95,77,51,30.29,30.12,10,4,0,0.01
2013-11-24,25,19,12,14,10,6,84,71,45,30.48,30.30,8,3,0,0.00
2013-11-25,35,28,17,32,19,10,97,69,52,30.43,30.12,7,2,0,0.14
2013-11-26,34,32,31,34,32,31,99,99,95,30.16,29.88,5,0,0,0.00
2013-11-27,32,28,19,32,25,15,99,88,70,30.02,29.75,1,0,0,0.00
2013-11-28,28,22,16,22,16,13,96,81,64,30.45,30.03,2,0,0,0.00
2013-11-29,28,22,17,22,18,14,99,88,71,30.74,30.45,0,0,0,0.00
2013-11-30,36,28,14,30,22,13,95,82,69,30.71,30.21,2,0,0,0.04
2013-12-1,40,37,33,38,35,31,99,92,83,30.21,29.99,3,0,0,1.17
2013-12-2,36,33,28,35,32,27,99,96,87,29.98,29.92,4,1,0,0.15
2013-12-3,37,32,22,30,27,21,98,83,67,30.03,29.97,5,1,0,0.00
2013-12-4,47,39,32,43,37,30,99,92,82,30.05,29.87,4,1,0,0.04
2013-12-5,58,49,37,54,44,31,89,82,69,29.99,29.76,7,2,0,0.01
2013-12-6,36,32,29,33,25,21,91,74,67,30.21,29.97,6,2,0,0.00
2013-12-7,28,24,16,21,17,11,84,72,57,30.50,30.21,7,3,0,0.00
2013-12-8,28,22,14,23,16,11,89,75,57,30.50,30.09,6,2,0,0.00
2013-12-9,36,31,26,36,29,21,99,90,76,30.07,29.81,11,3,0,0.02
2013-12-10,27,22,18,21,14,8,93,70,57,30.02,29.85,13,4,0,0.00
2013-12-11,25,20,13,18,13,8,91,74,65,30.24,30.03,10,4,0,0.00
2013-12-12,20,15,9,17,8,3,90,74,60,30.29,30.01,14,4,0,0.00
2013-12-13,25,18,14,22,15,10,94,86,71,30.32,30.00,8,3,0,0.00
2013-12-14,18,15,13,17,13,9,96,93,84,30.33,29.67,9,3,0,0.00
2013-12-15,24,19,14,24,18,13,99,98,96,29.84,29.61,8,2,0,0.00
2013-12-16,19,12,6,15,9,4,97,90,73,30.10,29.84,7,2,0,0.00
2013-12-17,29,20,10,27,18,8,96,91,80,30.05,29.84,5,1,0,0.00
2013-12-18,31,27,22,25,23,20,95,85,76,30.01,29.87,7,2,0,0.00
2013-12-19,40,35,29,34,30,22,98,83,75,29.98,29.84,9,2,0,0.37
2013-12-20,40,36,34,40,36,33,99,99,99,29.92,29.72,3,0,0,0.80
2013-12-21,49,36,31,48,36,31,99,99,99,29.82,29.67,10,2,0,1.03
2013-12-22,35,32,30,35,32,30,99,99,99,29.90,29.57,6,1,0,0.07
2013-12-23,36,31,20,36,29,19,99,92,78,30.22,29.89,8,2,0,0.01
2013-12-24,25,18,6,22,15,3,98,88,76,30.44,30.16,3,0,0,0.00
2013-12-25,27,15,1,21,11,-1,96,86,76,30.45,30.09,4,1,0,0.00
2013-12-26,32,26,18,28,22,13,99,85,73,30.22,29.99,6,1,0,0.00
2013-12-27,37,28,19,33,25,15,99,90,74,30.21,30.00,6,1,0,0.00
2013-12-28,41,38,33,36,33,32,98,85,76,30.04,29.88,8,2,0,0.35
2013-12-29,44,38,25,37,32,18,90,78,58,29.87,29.59,8,2,0,0.00
2013-12-30,25,19,17,18,10,7,80,68,59,30.15,29.78,7,3,0,0.00
2013-12-31,20,16,10,17,11,4,95,80,67,30.19,29.92,17,3,0,0.00
2014-1-1,21,14,5,13,9,2,93,79,57,30.32,30.19,8,3,0,0.00
2014-1-2,13,10,5,12,8,3,94,92,91,30.22,29.95,9,5,0,0.00